createdAt,value
2023-02-02T00:00:29.914Z,3.97
2023-02-02T00:02:57.105Z,3.97
2023-02-02T00:05:26.958Z,3.97
2023-02-02T00:07:54.035Z,3.96
2023-02-02T00:10:20.979Z,3.92
2023-02-02T00:12:49.290Z,3.86
2023-02-02T00:15:16.464Z,3.83
2023-02-02T00:17:43.406Z,3.76
2023-02-02T00:20:11.397Z,3.63
2023-02-02T00:22:38.344Z,3.55
2023-02-02T00:25:05.928Z,3.49
2023-02-02T00:27:32.855Z,3.42
2023-02-02T00:30:01.239Z,3.37
2023-02-02T00:32:28.150Z,3.37
2023-02-02T00:34:55.047Z,3.40
2023-02-02T00:37:22.005Z,3.43
2023-02-02T00:39:48.914Z,3.45
2023-02-02T00:42:15.841Z,3.46
2023-02-02T00:45:01.329Z,3.46
2023-02-02T00:47:29.677Z,3.46
2023-02-02T00:49:56.608Z,3.46
2023-02-02T00:52:23.591Z,3.44
2023-02-02T00:54:50.547Z,3.44
2023-02-02T00:57:17.459Z,3.46
2023-02-02T00:59:44.366Z,3.51
2023-02-02T01:02:12.344Z,3.56
2023-02-02T01:04:41.079Z,3.60
2023-02-02T01:07:08.518Z,3.66
2023-02-02T01:09:35.431Z,3.71
2023-02-02T01:12:03.126Z,3.75
2023-02-02T01:14:31.046Z,3.76
2023-02-02T01:16:57.950Z,3.80
2023-02-02T01:19:26.273Z,3.86
2023-02-02T01:21:54.558Z,3.89
2023-02-02T01:24:24.045Z,3.89
2023-02-02T01:26:51.004Z,3.90
2023-02-02T01:29:20.392Z,3.94
2023-02-02T01:31:48.210Z,3.96
2023-02-02T01:34:15.254Z,3.95
2023-02-02T01:36:42.173Z,3.95
2023-02-02T01:39:10.647Z,3.92
2023-02-02T01:41:37.703Z,3.94
2023-02-02T01:44:06.257Z,3.95
2023-02-02T01:46:34.918Z,4.06
2023-02-02T01:49:07.678Z,4.02
2023-02-02T01:51:40.753Z,4.01
2023-02-02T01:54:14.092Z,3.96
2023-02-02T01:56:47.192Z,3.93
2023-02-02T01:59:16.328Z,3.91
2023-02-02T02:01:45.322Z,3.87
2023-02-02T02:04:12.378Z,3.82
2023-02-02T02:06:39.721Z,3.79
2023-02-02T02:09:07.616Z,3.77
2023-02-02T02:11:36.632Z,3.76
2023-02-02T02:14:24.548Z,3.75
2023-02-02T02:17:15.624Z,3.76
2023-02-02T02:20:52.444Z,3.77
2023-02-02T02:24:13.342Z,3.79
2023-02-02T02:27:03.014Z,3.80
2023-02-02T02:30:01.185Z,3.84
2023-02-02T02:32:39.374Z,3.83
2023-02-02T02:35:13.884Z,3.83
2023-02-02T02:37:48.882Z,3.82
2023-02-02T02:40:23.199Z,3.81
2023-02-02T02:42:54.182Z,3.77
2023-02-02T02:45:23.459Z,3.74
2023-02-02T02:47:52.963Z,3.73
2023-02-02T02:50:21.359Z,3.72
2023-02-02T02:52:49.945Z,3.73
2023-02-02T02:55:17.467Z,3.77
2023-02-02T02:58:01.807Z,3.75
2023-02-02T03:00:54.513Z,3.74
2023-02-02T03:03:33.713Z,3.74
2023-02-02T03:06:08.307Z,3.70
2023-02-02T03:08:40.713Z,3.70
2023-02-02T03:11:11.069Z,3.72
2023-02-02T03:13:39.596Z,3.69
2023-02-02T03:16:07.032Z,3.67
2023-02-02T03:18:35.547Z,3.65
2023-02-02T03:21:02.858Z,3.67
2023-02-02T03:23:29.927Z,3.63
2023-02-02T03:25:56.882Z,3.62
2023-02-02T03:28:25.538Z,3.62
2023-02-02T03:30:55.026Z,3.60
2023-02-02T03:33:22.343Z,3.60
2023-02-02T03:35:50.779Z,3.58
2023-02-02T03:38:17.765Z,3.60
2023-02-02T03:40:44.759Z,3.57
2023-02-02T03:43:20.590Z,3.57
2023-02-02T03:45:55.813Z,3.58
2023-02-02T03:48:23.112Z,3.54
2023-02-02T03:50:51.507Z,3.50
2023-02-02T03:53:21.631Z,3.49
2023-02-02T03:55:49.092Z,3.45
2023-02-02T03:58:16.002Z,3.47
2023-02-02T04:00:43.146Z,3.47
2023-02-02T04:03:10.081Z,3.47
2023-02-02T04:05:36.995Z,3.45
2023-02-02T04:08:05.654Z,3.44
2023-02-02T04:10:32.595Z,3.41
2023-02-02T04:12:59.499Z,3.39
2023-02-02T04:15:26.781Z,3.42
2023-02-02T04:17:53.833Z,3.42
2023-02-02T04:20:20.777Z,3.44
2023-02-02T04:22:47.754Z,3.44
2023-02-02T04:25:16.489Z,3.46
2023-02-02T04:27:43.454Z,3.48
2023-02-02T04:30:11.654Z,3.48
2023-02-02T04:32:39.306Z,3.46
2023-02-02T04:35:07.156Z,3.43
2023-02-02T04:37:34.136Z,3.39
2023-02-02T04:40:01.094Z,3.39
2023-02-02T04:42:32.202Z,3.39
2023-02-02T04:44:59.404Z,3.36
2023-02-02T04:47:26.307Z,3.34
2023-02-02T04:49:53.192Z,3.33
2023-02-02T04:52:20.134Z,3.32
2023-02-02T04:54:47.072Z,3.32
2023-02-02T04:57:13.965Z,3.32
2023-02-02T04:59:42.594Z,3.33
2023-02-02T05:02:09.603Z,3.35
2023-02-02T05:04:36.606Z,3.37
2023-02-02T05:07:03.541Z,3.32
2023-02-02T05:09:30.503Z,3.30
2023-02-02T05:11:57.395Z,3.29
2023-02-02T05:14:24.345Z,3.29
2023-02-02T05:16:53.773Z,3.31
2023-02-02T05:19:20.750Z,3.33
2023-02-02T05:21:51.160Z,3.35
2023-02-02T05:24:18.472Z,3.35
2023-02-02T05:26:45.591Z,3.36
2023-02-02T05:29:12.657Z,3.37
2023-02-02T05:31:39.605Z,3.39
2023-02-02T05:34:11.422Z,3.43
2023-02-02T05:36:38.475Z,3.46
2023-02-02T05:39:06.794Z,3.49
2023-02-02T05:41:33.817Z,3.52
2023-02-02T05:44:01.139Z,3.55
2023-02-02T05:46:28.086Z,3.61
2023-02-02T05:48:55.080Z,3.64
2023-02-02T05:51:26.847Z,3.68
2023-02-02T05:53:53.847Z,3.75
2023-02-02T05:56:20.780Z,3.88
2023-02-02T05:58:49.851Z,4.42
2023-02-02T06:01:18.562Z,5.01
2023-02-02T06:03:45.663Z,5.22
2023-02-02T06:06:13.179Z,5.21
2023-02-02T06:08:41.467Z,5.62
2023-02-02T06:11:12.587Z,6.06
2023-02-02T06:13:44.257Z,6.32
2023-02-02T06:16:12.680Z,6.40
2023-02-02T06:18:39.705Z,6.41
2023-02-02T06:21:10.333Z,6.32
2023-02-02T06:23:38.345Z,6.38
2023-02-02T06:26:08.278Z,6.48
2023-02-02T06:28:35.183Z,6.60
2023-02-02T06:31:05.961Z,6.67
2023-02-02T06:33:33.489Z,6.72
2023-02-02T06:36:01.193Z,6.78
2023-02-02T06:38:28.311Z,6.91
2023-02-02T06:40:55.256Z,7.11
2023-02-02T06:43:23.935Z,7.32
2023-02-02T06:45:50.861Z,7.31
2023-02-02T06:48:17.833Z,7.09
2023-02-02T06:50:47.776Z,6.83
2023-02-02T06:53:14.747Z,6.62
2023-02-02T06:55:41.683Z,6.64
2023-02-02T06:58:08.958Z,6.57
2023-02-02T07:00:38.324Z,6.66
2023-02-02T07:03:07.232Z,6.98
2023-02-02T07:05:34.169Z,7.38
2023-02-02T07:08:01.075Z,7.51
2023-02-02T07:11:14.237Z,7.42
2023-02-02T07:13:14.966Z,7.70
2023-02-02T07:15:43.360Z,8.12
2023-02-02T07:18:10.479Z,8.54
2023-02-02T07:20:37.480Z,8.90
2023-02-02T07:23:04.814Z,9.25
2023-02-02T07:25:31.901Z,9.54
2023-02-02T07:28:01.243Z,9.77
2023-02-02T07:30:29.932Z,10.10
2023-02-02T07:32:58.441Z,10.50
2023-02-02T07:35:25.765Z,10.63
2023-02-02T07:37:53.635Z,10.56
2023-02-02T07:40:23.484Z,10.72
2023-02-02T07:42:50.721Z,10.94
2023-02-02T07:45:35.844Z,11.18
2023-02-02T07:48:04.769Z,11.50
2023-02-02T07:50:32.543Z,11.72
2023-02-02T07:53:00.631Z,11.84
2023-02-02T07:55:27.846Z,11.83
2023-02-02T07:57:58.831Z,11.87
2023-02-02T08:00:26.342Z,11.96
2023-02-02T08:02:56.177Z,11.55
2023-02-02T08:05:24.766Z,11.49
2023-02-02T08:07:51.842Z,11.52
2023-02-02T08:10:18.910Z,11.28
2023-02-02T08:12:45.825Z,11.18
2023-02-02T08:15:12.759Z,11.24
2023-02-02T08:17:39.746Z,11.49
2023-02-02T08:20:07.729Z,11.43
2023-02-02T08:22:36.166Z,10.88
2023-02-02T08:25:03.143Z,10.52
2023-02-02T08:27:30.095Z,10.16
2023-02-02T08:29:57.072Z,9.99
2023-02-02T08:32:23.992Z,9.90
2023-02-02T08:34:54.086Z,9.82
2023-02-02T08:37:21.033Z,9.84
2023-02-02T08:39:49.435Z,10.14
2023-02-02T08:42:16.369Z,10.78
2023-02-02T08:46:00.373Z,10.85
2023-02-02T08:47:30.618Z,10.89
2023-02-02T08:49:58.038Z,10.93
2023-02-02T08:52:25.926Z,11.05
2023-02-02T08:54:54.347Z,11.16
2023-02-02T08:57:21.296Z,11.17
2023-02-02T08:59:48.231Z,11.08
2023-02-02T09:02:15.239Z,11.13
2023-02-02T09:04:45.347Z,11.32
2023-02-02T09:07:12.421Z,11.56
2023-02-02T09:09:39.348Z,11.75
2023-02-02T09:12:10.878Z,12.09
2023-02-02T09:14:38.188Z,12.18
2023-02-02T09:17:05.104Z,12.44
2023-02-02T09:19:32.129Z,12.84
2023-02-02T09:21:59.727Z,13.19
2023-02-02T09:24:26.717Z,13.31
2023-02-02T09:26:53.670Z,13.16
2023-02-02T09:29:22.206Z,13.16
2023-02-02T09:31:49.296Z,12.95
2023-02-02T09:34:16.546Z,12.78
2023-02-02T09:36:44.469Z,12.35
2023-02-02T09:39:12.977Z,12.43
2023-02-02T09:41:55.952Z,12.43
2023-02-02T09:44:35.673Z,12.29
2023-02-02T09:47:12.484Z,12.36
2023-02-02T09:49:48.022Z,12.20
2023-02-02T09:52:18.755Z,11.87
2023-02-02T09:54:48.500Z,11.70
2023-02-02T09:57:20.369Z,11.48
2023-02-02T09:59:51.160Z,11.63
2023-02-02T10:02:22.166Z,12.00
2023-02-02T10:04:52.453Z,12.23
2023-02-02T10:07:23.982Z,12.26
2023-02-02T10:09:58.995Z,12.06
2023-02-02T10:12:33.851Z,12.05
2023-02-02T10:15:13.172Z,11.93
2023-02-02T10:17:46.976Z,11.79
2023-02-02T10:20:34.170Z,11.91
2023-02-02T10:23:21.518Z,11.98
2023-02-02T10:25:56.517Z,12.40
2023-02-02T10:28:41.218Z,12.64
2023-02-02T10:31:19.417Z,12.73
2023-02-02T10:33:56.087Z,12.84
2023-02-02T10:36:33.957Z,13.12
2023-02-02T10:39:09.750Z,13.05
2023-02-02T10:41:45.557Z,12.83
2023-02-02T10:44:24.325Z,12.78
2023-02-02T10:46:55.757Z,12.54
2023-02-02T10:49:28.771Z,12.45
2023-02-02T10:51:59.556Z,12.17
2023-02-02T10:54:56.376Z,12.26
2023-02-02T10:57:51.022Z,12.39
2023-02-02T11:00:25.315Z,12.31
2023-02-02T11:02:54.484Z,12.17
2023-02-02T11:05:41.665Z,12.00
2023-02-02T11:08:14.783Z,11.75
2023-02-02T11:10:43.321Z,11.59
2023-02-02T11:13:15.846Z,11.61
2023-02-02T11:15:42.894Z,11.70
2023-02-02T11:18:29.027Z,11.53
2023-02-02T11:20:57.302Z,11.42
2023-02-02T11:23:27.795Z,11.58
2023-02-02T11:26:00.783Z,11.87
2023-02-02T11:28:34.099Z,12.10
2023-02-02T11:31:01.979Z,12.19
2023-02-02T11:33:33.520Z,12.25
2023-02-02T11:36:01.860Z,12.27
2023-02-02T11:38:29.093Z,12.17
2023-02-02T11:41:00.996Z,11.96
2023-02-02T11:43:30.351Z,11.71
2023-02-02T11:46:03.066Z,11.53
2023-02-02T11:48:34.961Z,11.43
2023-02-02T11:51:03.023Z,11.37
2023-02-02T11:53:33.080Z,11.49
2023-02-02T11:56:02.528Z,11.59
2023-02-02T11:58:42.258Z,11.56
2023-02-02T12:01:24.742Z,11.56
2023-02-02T12:03:54.754Z,11.59
2023-02-02T12:06:24.059Z,11.56
2023-02-02T12:08:56.786Z,11.50
2023-02-02T12:11:39.361Z,11.46
2023-02-02T12:14:21.171Z,11.45
2023-02-02T12:17:04.327Z,11.56
2023-02-02T12:20:05.078Z,11.76
2023-02-02T12:22:45.710Z,11.67
2023-02-02T12:25:33.699Z,11.58
2023-02-02T12:28:06.290Z,11.55
2023-02-02T12:30:40.819Z,11.57
2023-02-02T12:33:21.080Z,11.46
2023-02-02T12:36:18.287Z,11.33
2023-02-02T12:39:03.374Z,11.22
2023-02-02T12:41:42.478Z,11.03
2023-02-02T12:44:15.480Z,10.84
2023-02-02T12:46:55.043Z,10.69
2023-02-02T12:49:35.553Z,10.58
2023-02-02T12:52:30.981Z,10.50
2023-02-02T12:55:28.846Z,10.28
2023-02-02T12:58:07.380Z,10.00
2023-02-02T13:00:53.392Z,9.83
2023-02-02T13:03:43.013Z,9.65
2023-02-02T13:06:24.942Z,9.51
2023-02-02T13:08:58.565Z,9.22
2023-02-02T13:11:35.509Z,8.94
2023-02-02T13:14:09.642Z,8.68
2023-02-02T13:16:38.216Z,8.46
2023-02-02T13:19:11.141Z,8.24
2023-02-02T13:21:39.565Z,8.09
2023-02-02T13:24:14.319Z,7.97
2023-02-02T13:26:44.478Z,7.84
2023-02-02T13:29:22.414Z,7.76
2023-02-02T13:31:56.093Z,7.62
2023-02-02T13:34:27.756Z,7.53
2023-02-02T13:36:59.130Z,7.52
2023-02-02T13:39:34.033Z,7.55
2023-02-02T13:42:02.941Z,7.56
2023-02-02T13:44:37.212Z,7.60
2023-02-02T13:47:08.866Z,7.45
2023-02-02T13:49:41.024Z,7.26
2023-02-02T13:52:44.330Z,7.20
2023-02-02T13:55:47.531Z,7.05
2023-02-02T13:58:48.449Z,6.85
2023-02-02T14:01:15.846Z,6.72
2023-02-02T14:03:44.833Z,6.66
2023-02-02T14:06:15.241Z,6.61
2023-02-02T14:08:46.767Z,6.48
2023-02-02T14:11:21.919Z,6.28
2023-02-02T14:14:11.147Z,6.18
2023-02-02T14:16:50.152Z,6.14
2023-02-02T14:19:42.063Z,6.19
2023-02-02T14:22:20.739Z,6.13
2023-02-02T14:24:50.258Z,6.15
2023-02-02T14:30:38.784Z,6.16
2023-02-02T14:33:40.065Z,6.11
2023-02-02T14:36:13.983Z,6.06
2023-02-02T14:39:09.971Z,6.02
2023-02-02T14:42:24.036Z,5.98
2023-02-02T14:45:22.474Z,5.92
2023-02-02T14:47:53.761Z,5.89
2023-02-02T14:50:32.311Z,5.90
2023-02-02T14:53:03.021Z,5.90
2023-02-02T14:55:31.098Z,5.92
2023-02-02T14:58:01.079Z,5.87
2023-02-02T15:00:31.218Z,5.87
2023-02-02T15:03:34.160Z,5.89
2023-02-02T15:06:13.157Z,5.90
2023-02-02T15:08:40.304Z,5.91
2023-02-02T15:11:28.735Z,5.89
2023-02-02T15:14:13.533Z,5.88
2023-02-02T15:16:42.646Z,5.90
2023-02-02T15:19:32.527Z,5.85
2023-02-02T15:22:06.904Z,5.85
2023-02-02T15:24:37.650Z,5.86
2023-02-02T15:27:08.773Z,5.83
2023-02-02T15:29:42.717Z,5.82
2023-02-02T15:32:16.392Z,5.78
2023-02-02T15:34:48.593Z,5.72
2023-02-02T15:37:20.579Z,5.68
2023-02-02T15:39:49.912Z,5.63
2023-02-02T15:42:49.216Z,5.62
2023-02-02T15:45:35.501Z,5.57
2023-02-02T15:48:09.003Z,5.56
2023-02-02T15:50:39.556Z,5.48
2023-02-02T15:53:06.730Z,5.41
2023-02-02T15:55:35.733Z,5.37
2023-02-02T15:58:04.005Z,5.37
2023-02-02T16:00:33.569Z,5.35
2023-02-02T16:03:04.931Z,5.31
2023-02-02T16:05:47.371Z,5.25
2023-02-02T16:08:18.100Z,5.26
2023-02-02T16:10:46.658Z,5.20
2023-02-02T16:13:26.444Z,5.20
2023-02-02T16:15:59.023Z,5.14
2023-02-02T16:18:26.732Z,5.10
2023-02-02T16:20:57.635Z,5.09
2023-02-02T16:23:29.581Z,5.08
2023-02-02T16:25:59.441Z,5.11
2023-02-02T16:28:26.957Z,5.12
2023-02-02T16:30:54.325Z,5.15
2023-02-02T16:33:35.543Z,5.11
2023-02-02T16:36:23.982Z,5.09
2023-02-02T16:38:52.963Z,5.10
2023-02-02T16:41:28.913Z,5.11
2023-02-02T16:43:56.119Z,5.05
2023-02-02T16:46:42.788Z,5.04
2023-02-02T16:49:16.006Z,4.98
2023-02-02T16:51:45.456Z,4.99
2023-02-02T16:54:19.535Z,4.98
2023-02-02T16:56:48.958Z,4.96
2023-02-02T16:59:22.038Z,4.88
2023-02-02T17:01:52.322Z,4.84
2023-02-02T17:04:23.402Z,4.80
2023-02-02T17:06:53.542Z,4.83
2023-02-02T17:09:35.204Z,4.77
2023-02-02T17:12:09.371Z,4.77
2023-02-02T17:14:52.115Z,4.75
2023-02-02T17:17:19.256Z,4.67
2023-02-02T17:19:47.867Z,4.62
2023-02-02T17:22:18.178Z,4.61
2023-02-02T17:24:49.755Z,4.58
2023-02-02T17:27:18.883Z,4.51
2023-02-02T17:29:46.300Z,4.49
2023-02-02T17:32:14.328Z,4.47
2023-02-02T17:34:41.337Z,4.49
2023-02-02T17:37:08.372Z,4.45
2023-02-02T17:39:37.032Z,4.44
2023-02-02T17:42:04.365Z,4.46
2023-02-02T17:44:31.481Z,4.42
2023-02-02T17:46:58.392Z,4.42
2023-02-02T17:49:25.342Z,4.40
2023-02-02T17:51:52.281Z,4.36
2023-02-02T17:54:19.308Z,4.31
2023-02-02T17:56:47.692Z,4.32
2023-02-02T17:59:14.589Z,4.26
2023-02-02T18:01:41.956Z,4.21
2023-02-02T18:04:12.312Z,4.18
2023-02-02T18:06:40.092Z,4.15
2023-02-02T18:09:07.471Z,4.09
2023-02-02T18:11:34.455Z,4.09
2023-02-02T18:14:04.315Z,4.06
2023-02-02T18:16:31.991Z,4.03
2023-02-02T18:18:58.945Z,4.02
2023-02-02T18:21:29.775Z,4.00
2023-02-02T18:23:57.021Z,3.97
2023-02-02T18:26:24.032Z,3.97
2023-02-02T18:28:51.998Z,3.96
2023-02-02T18:31:23.835Z,3.93
2023-02-02T18:33:51.114Z,3.96
2023-02-02T18:36:20.744Z,3.98
2023-02-02T18:38:49.261Z,3.92
2023-02-02T18:41:17.572Z,3.87
2023-02-02T18:43:45.698Z,3.86
2023-02-02T18:46:15.074Z,3.87
2023-02-02T18:48:43.700Z,3.83
2023-02-02T18:51:16.602Z,3.81
2023-02-02T18:53:44.274Z,3.78
2023-02-02T18:56:12.866Z,3.79
2023-02-02T18:58:40.677Z,3.74
2023-02-02T19:01:08.535Z,3.73
2023-02-02T19:03:36.752Z,3.70
2023-02-02T19:06:25.817Z,3.70
2023-02-02T19:08:53.049Z,3.68
2023-02-02T19:11:22.209Z,3.69
2023-02-02T19:13:49.658Z,3.69
2023-02-02T19:16:22.847Z,3.65
2023-02-02T19:18:50.243Z,3.65
2023-02-02T19:21:18.542Z,3.64
2023-02-02T19:23:46.226Z,3.64
2023-02-02T19:26:21.896Z,3.63
2023-02-02T19:28:49.073Z,3.68
2023-02-02T19:31:16.359Z,3.69
2023-02-02T19:33:46.291Z,3.64
2023-02-02T19:36:20.181Z,3.60
2023-02-02T19:38:49.025Z,3.61
2023-02-02T19:41:20.101Z,3.57
2023-02-02T19:43:47.946Z,3.56
2023-02-02T19:46:18.775Z,3.50
2023-02-02T19:48:51.728Z,3.49
2023-02-02T19:51:39.724Z,3.46
2023-02-02T19:54:26.955Z,3.42
2023-02-02T19:56:57.497Z,3.40
2023-02-02T19:59:26.666Z,3.33
2023-02-02T20:01:55.266Z,3.29
2023-02-02T20:04:22.575Z,3.27
2023-02-02T20:06:59.196Z,3.24
2023-02-02T20:09:34.218Z,3.23
2023-02-02T20:12:01.269Z,3.21
2023-02-02T20:14:32.146Z,3.21
2023-02-02T20:17:02.589Z,3.21
2023-02-02T20:19:33.602Z,3.22
2023-02-02T20:22:03.124Z,3.21
2023-02-02T20:24:36.307Z,3.21
2023-02-02T20:27:13.386Z,3.22
2023-02-02T20:29:42.541Z,3.23
2023-02-02T20:32:21.151Z,3.22
2023-02-02T20:34:49.091Z,3.19
2023-02-02T20:37:22.922Z,3.19
2023-02-02T20:39:54.624Z,3.17
2023-02-02T20:42:22.078Z,3.15
2023-02-02T20:44:49.167Z,3.11
2023-02-02T20:47:16.185Z,3.09
2023-02-02T20:49:44.478Z,3.07
2023-02-02T20:52:18.231Z,3.05
2023-02-02T20:54:46.545Z,3.02
2023-02-02T20:57:13.789Z,3.00
2023-02-02T20:59:40.761Z,3.06
2023-02-02T21:02:08.211Z,3.06
2023-02-02T21:04:35.172Z,3.07
2023-02-02T21:07:02.147Z,3.07
2023-02-02T21:09:29.063Z,3.07
2023-02-02T21:11:57.366Z,3.09
2023-02-02T21:14:24.259Z,3.07
2023-02-02T21:16:55.349Z,3.07
2023-02-02T21:19:26.629Z,3.08
2023-02-02T21:21:53.690Z,3.04
2023-02-02T21:24:20.592Z,2.99
2023-02-02T21:26:52.203Z,2.99
2023-02-02T21:29:20.867Z,2.92
2023-02-02T21:31:48.121Z,2.87
2023-02-02T21:34:17.340Z,2.87
2023-02-02T21:36:46.343Z,2.85
2023-02-02T21:39:21.595Z,2.85
2023-02-02T21:41:49.368Z,2.88
2023-02-02T21:44:18.038Z,2.84
2023-02-02T21:46:48.627Z,2.84
2023-02-02T21:49:22.723Z,2.90
2023-02-02T21:51:50.191Z,2.90
2023-02-02T21:54:22.697Z,2.92
2023-02-02T21:56:50.720Z,2.95
2023-02-02T21:59:19.536Z,2.98
2023-02-02T22:01:49.473Z,2.99
2023-02-02T22:04:20.055Z,2.98
2023-02-02T22:06:48.756Z,2.97
2023-02-02T22:09:19.176Z,2.91
2023-02-02T22:11:50.001Z,2.90
2023-02-02T22:14:25.103Z,2.92
2023-02-02T22:16:57.035Z,2.92
2023-02-02T22:19:26.752Z,2.92
2023-02-02T22:21:57.936Z,2.97
2023-02-02T22:24:25.405Z,3.00
2023-02-02T22:26:52.419Z,3.01
2023-02-02T22:29:21.377Z,3.02
2023-02-02T22:31:48.550Z,3.01
2023-02-02T22:34:16.870Z,3.01
2023-02-02T22:36:43.835Z,2.99
2023-02-02T22:39:10.941Z,2.97
2023-02-02T22:41:37.885Z,2.98
2023-02-02T22:44:06.008Z,2.96
2023-02-02T22:46:33.035Z,2.93
2023-02-02T22:49:00.000Z,2.94
2023-02-02T22:51:28.369Z,2.96
2023-02-02T22:53:55.345Z,2.97
2023-02-02T22:56:26.310Z,2.99
2023-02-02T22:58:53.241Z,3.00
2023-02-02T23:01:20.325Z,3.01
2023-02-02T23:03:48.659Z,3.04
2023-02-02T23:06:15.727Z,3.03
2023-02-02T23:08:44.371Z,3.07
2023-02-02T23:11:11.376Z,3.13
2023-02-02T23:13:38.345Z,3.14
2023-02-02T23:16:06.112Z,3.14
2023-02-02T23:18:33.230Z,3.12
2023-02-02T23:21:00.478Z,3.05
2023-02-02T23:23:27.410Z,3.01
2023-02-02T23:25:55.900Z,3.01
2023-02-02T23:28:22.907Z,2.98
2023-02-02T23:30:51.030Z,2.93
2023-02-02T23:33:17.988Z,2.86
2023-02-02T23:35:45.189Z,2.84
2023-02-02T23:38:13.463Z,2.84
2023-02-02T23:40:40.373Z,2.83
2023-02-02T23:43:08.844Z,2.83
2023-02-02T23:45:36.490Z,2.85
2023-02-02T23:48:03.494Z,2.88
2023-02-02T23:50:30.539Z,2.87
2023-02-02T23:52:57.986Z,2.88
2023-02-02T23:55:24.951Z,2.89
2023-02-02T23:57:52.022Z,2.87
